Terminal Aerodrome Forecast
Issued by NWS

Home | Current Version | Previous Version | Text Only | Print | Product List | Glossary On
Versions: 1 2 3 4 5 6 7 8 9 10 11 12 13 14 15
884
FTUS41 KBTV 251232 AAA
TAFMSS
TAF AMD
KMSS 251232Z 2513/2612 05012G18KT P6SM VCSH SCT018 OVC028
     FM251700 05007KT P6SM BKN025
     FM251900 05007KT P6SM SCT040
     FM252300 08004KT P6SM SKC
     FM260700 VRB02KT 3SM BR VCFG FEW001=

USA.gov is the U.S. government's official web portal to all federal, state and local government web resources and services.